sensor_id;sensor_type;location;lat;lon;timestamp;temperature;humidity
30186;DHT22;31152;49.190;8.122;2024-02-23T00:01:00;8.20;99.90
30186;DHT22;31152;49.190;8.122;2024-02-23T00:03:27;8.20;99.90
30186;DHT22;31152;49.190;8.122;2024-02-23T00:05:54;8.20;99.90
30186;DHT22;31152;49.190;8.122;2024-02-23T00:08:20;8.10;99.90
30186;DHT22;31152;49.190;8.122;2024-02-23T00:10:50;8.10;99.90
30186;DHT22;31152;49.190;8.122;2024-02-23T00:13:17;8.00;99.90
30186;DHT22;31152;49.190;8.122;2024-02-23T00:15:43;8.00;99.90
30186;DHT22;31152;49.190;8.122;2024-02-23T00:18:10;8.00;99.90
30186;DHT22;31152;49.190;8.122;2024-02-23T00:20:39;8.10;99.90
30186;DHT22;31152;49.190;8.122;2024-02-23T00:23:13;8.10;99.90
30186;DHT22;31152;49.190;8.122;2024-02-23T00:25:41;8.10;99.90
30186;DHT22;31152;49.190;8.122;2024-02-23T00:28:08;8.00;99.90
30186;DHT22;31152;49.190;8.122;2024-02-23T00:30:34;8.10;99.90
30186;DHT22;31152;49.190;8.122;2024-02-23T00:33:02;8.10;99.90
30186;DHT22;31152;49.190;8.122;2024-02-23T00:35:31;8.10;99.90
30186;DHT22;31152;49.190;8.122;2024-02-23T00:37:58;8.00;99.90
30186;DHT22;31152;49.190;8.122;2024-02-23T00:40:25;8.00;99.90
30186;DHT22;31152;49.190;8.122;2024-02-23T00:42:51;8.00;99.90
30186;DHT22;31152;49.190;8.122;2024-02-23T00:45:18;7.90;99.90
30186;DHT22;31152;49.190;8.122;2024-02-23T00:47:45;8.00;99.90
30186;DHT22;31152;49.190;8.122;2024-02-23T00:50:13;7.90;99.90
30186;DHT22;31152;49.190;8.122;2024-02-23T00:52:40;7.90;99.90
30186;DHT22;31152;49.190;8.122;2024-02-23T00:55:08;7.90;99.90
30186;DHT22;31152;49.190;8.122;2024-02-23T00:57:35;7.90;99.90
30186;DHT22;31152;49.190;8.122;2024-02-23T01:00:04;7.90;99.90
30186;DHT22;31152;49.190;8.122;2024-02-23T01:02:31;7.90;99.90
30186;DHT22;31152;49.190;8.122;2024-02-23T01:04:59;7.90;99.90
30186;DHT22;31152;49.190;8.122;2024-02-23T01:07:29;7.80;99.90
30186;DHT22;31152;49.190;8.122;2024-02-23T01:09:58;7.90;99.90
30186;DHT22;31152;49.190;8.122;2024-02-23T01:12:26;7.90;99.90
30186;DHT22;31152;49.190;8.122;2024-02-23T01:14:53;7.90;99.90
30186;DHT22;31152;49.190;8.122;2024-02-23T01:17:19;7.90;99.90
30186;DHT22;31152;49.190;8.122;2024-02-23T01:19:46;7.90;99.90
30186;DHT22;31152;49.190;8.122;2024-02-23T01:22:15;8.00;99.90
30186;DHT22;31152;49.190;8.122;2024-02-23T01:24:42;7.90;99.90
30186;DHT22;31152;49.190;8.122;2024-02-23T01:27:09;8.00;99.90
30186;DHT22;31152;49.190;8.122;2024-02-23T01:29:36;7.90;99.90
30186;DHT22;31152;49.190;8.122;2024-02-23T01:32:03;7.90;99.90
30186;DHT22;31152;49.190;8.122;2024-02-23T01:34:29;7.90;99.90
30186;DHT22;31152;49.190;8.122;2024-02-23T01:36:56;7.80;99.90
30186;DHT22;31152;49.190;8.122;2024-02-23T01:39:23;7.80;99.90
30186;DHT22;31152;49.190;8.122;2024-02-23T01:41:49;7.80;99.90
30186;DHT22;31152;49.190;8.122;2024-02-23T01:44:16;7.80;99.90
30186;DHT22;31152;49.190;8.122;2024-02-23T01:46:44;7.80;99.90
30186;DHT22;31152;49.190;8.122;2024-02-23T01:49:11;7.80;99.90
30186;DHT22;31152;49.190;8.122;2024-02-23T01:51:40;7.80;99.90
30186;DHT22;31152;49.190;8.122;2024-02-23T01:54:07;7.70;99.90
30186;DHT22;31152;49.190;8.122;2024-02-23T01:56:35;7.80;99.90
30186;DHT22;31152;49.190;8.122;2024-02-23T01:59:03;7.80;99.90
30186;DHT22;31152;49.190;8.122;2024-02-23T02:01:30;7.70;99.90
30186;DHT22;31152;49.190;8.122;2024-02-23T02:03:58;7.60;99.90
30186;DHT22;31152;49.190;8.122;2024-02-23T02:06:24;7.60;99.90
30186;DHT22;31152;49.190;8.122;2024-02-23T02:08:51;7.50;99.90
30186;DHT22;31152;49.190;8.122;2024-02-23T02:11:18;7.50;99.90
30186;DHT22;31152;49.190;8.122;2024-02-23T02:13:44;7.50;99.90
30186;DHT22;31152;49.190;8.122;2024-02-23T02:16:11;7.50;99.90
30186;DHT22;31152;49.190;8.122;2024-02-23T02:18:38;7.50;99.90
30186;DHT22;31152;49.190;8.122;2024-02-23T02:21:07;7.50;99.90
30186;DHT22;31152;49.190;8.122;2024-02-23T02:23:33;7.50;99.90
30186;DHT22;31152;49.190;8.122;2024-02-23T02:26:00;7.50;99.90
30186;DHT22;31152;49.190;8.122;2024-02-23T02:28:27;7.50;99.90
30186;DHT22;31152;49.190;8.122;2024-02-23T02:30:56;7.50;99.90
30186;DHT22;31152;49.190;8.122;2024-02-23T02:33:23;7.40;99.90
30186;DHT22;31152;49.190;8.122;2024-02-23T02:35:50;7.40;99.90
30186;DHT22;31152;49.190;8.122;2024-02-23T02:38:16;7.40;99.90
30186;DHT22;31152;49.190;8.122;2024-02-23T02:40:43;7.30;99.90
30186;DHT22;31152;49.190;8.122;2024-02-23T02:43:10;7.40;99.90
30186;DHT22;31152;49.190;8.122;2024-02-23T02:45:37;7.30;99.90
30186;DHT22;31152;49.190;8.122;2024-02-23T02:48:04;7.30;99.90
30186;DHT22;31152;49.190;8.122;2024-02-23T02:50:31;7.30;99.90
30186;DHT22;31152;49.190;8.122;2024-02-23T02:52:58;7.30;99.90
30186;DHT22;31152;49.190;8.122;2024-02-23T02:55:24;7.20;99.90
30186;DHT22;31152;49.190;8.122;2024-02-23T02:57:51;7.30;99.90
30186;DHT22;31152;49.190;8.122;2024-02-23T03:00:18;7.30;99.90
30186;DHT22;31152;49.190;8.122;2024-02-23T03:02:44;7.20;99.90
30186;DHT22;31152;49.190;8.122;2024-02-23T03:05:11;7.20;99.90
30186;DHT22;31152;49.190;8.122;2024-02-23T03:07:38;7.20;99.90
30186;DHT22;31152;49.190;8.122;2024-02-23T03:10:05;7.20;99.90
30186;DHT22;31152;49.190;8.122;2024-02-23T03:12:31;7.10;99.90
30186;DHT22;31152;49.190;8.122;2024-02-23T03:14:58;7.10;99.90
30186;DHT22;31152;49.190;8.122;2024-02-23T03:17:25;7.10;99.90
30186;DHT22;31152;49.190;8.122;2024-02-23T03:19:52;7.00;99.90
30186;DHT22;31152;49.190;8.122;2024-02-23T03:22:19;7.00;99.90
30186;DHT22;31152;49.190;8.122;2024-02-23T03:24:46;7.00;99.90
30186;DHT22;31152;49.190;8.122;2024-02-23T03:27:13;7.00;99.90
30186;DHT22;31152;49.190;8.122;2024-02-23T03:29:42;7.00;99.90
30186;DHT22;31152;49.190;8.122;2024-02-23T03:32:09;6.90;99.90
30186;DHT22;31152;49.190;8.122;2024-02-23T03:34:36;6.90;99.90
30186;DHT22;31152;49.190;8.122;2024-02-23T03:37:03;6.90;99.90
30186;DHT22;31152;49.190;8.122;2024-02-23T03:39:30;6.90;99.90
30186;DHT22;31152;49.190;8.122;2024-02-23T03:41:56;6.90;99.90
30186;DHT22;31152;49.190;8.122;2024-02-23T03:44:26;6.90;99.90
30186;DHT22;31152;49.190;8.122;2024-02-23T03:46:55;6.80;99.90
30186;DHT22;31152;49.190;8.122;2024-02-23T03:49:21;6.80;99.90
30186;DHT22;31152;49.190;8.122;2024-02-23T03:51:48;6.70;99.90
30186;DHT22;31152;49.190;8.122;2024-02-23T03:54:15;6.80;99.90
30186;DHT22;31152;49.190;8.122;2024-02-23T03:56:42;6.70;99.90
30186;DHT22;31152;49.190;8.122;2024-02-23T03:59:11;6.70;99.90
30186;DHT22;31152;49.190;8.122;2024-02-23T04:01:40;6.60;99.90
30186;DHT22;31152;49.190;8.122;2024-02-23T04:04:07;6.60;99.90
30186;DHT22;31152;49.190;8.122;2024-02-23T04:06:34;6.60;99.90
30186;DHT22;31152;49.190;8.122;2024-02-23T04:09:01;6.60;99.90
30186;DHT22;31152;49.190;8.122;2024-02-23T04:11:31;6.50;99.90
30186;DHT22;31152;49.190;8.122;2024-02-23T04:13:58;6.50;99.90
30186;DHT22;31152;49.190;8.122;2024-02-23T04:16:25;6.50;99.90
30186;DHT22;31152;49.190;8.122;2024-02-23T04:18:52;6.50;99.90
30186;DHT22;31152;49.190;8.122;2024-02-23T04:21:19;6.50;99.90
30186;DHT22;31152;49.190;8.122;2024-02-23T04:23:46;6.40;99.90
30186;DHT22;31152;49.190;8.122;2024-02-23T04:26:15;6.40;99.90
30186;DHT22;31152;49.190;8.122;2024-02-23T04:28:42;6.40;99.90
30186;DHT22;31152;49.190;8.122;2024-02-23T04:31:09;6.40;99.90
30186;DHT22;31152;49.190;8.122;2024-02-23T04:33:36;6.40;99.90
30186;DHT22;31152;49.190;8.122;2024-02-23T04:36:03;6.30;99.90
30186;DHT22;31152;49.190;8.122;2024-02-23T04:38:33;6.30;99.90
30186;DHT22;31152;49.190;8.122;2024-02-23T04:41:03;6.30;99.90
30186;DHT22;31152;49.190;8.122;2024-02-23T04:43:31;6.20;99.90
30186;DHT22;31152;49.190;8.122;2024-02-23T04:45:58;6.20;99.90
30186;DHT22;31152;49.190;8.122;2024-02-23T04:48:25;6.20;99.90
30186;DHT22;31152;49.190;8.122;2024-02-23T04:50:52;6.20;99.90
30186;DHT22;31152;49.190;8.122;2024-02-23T04:53:21;6.20;99.90
30186;DHT22;31152;49.190;8.122;2024-02-23T04:55:47;6.20;99.90
30186;DHT22;31152;49.190;8.122;2024-02-23T04:58:14;6.20;99.90
30186;DHT22;31152;49.190;8.122;2024-02-23T05:00:42;6.20;99.90
30186;DHT22;31152;49.190;8.122;2024-02-23T05:03:08;6.20;99.90
30186;DHT22;31152;49.190;8.122;2024-02-23T05:05:38;6.20;99.90
30186;DHT22;31152;49.190;8.122;2024-02-23T05:08:05;6.20;99.90
30186;DHT22;31152;49.190;8.122;2024-02-23T05:10:32;6.20;99.90
30186;DHT22;31152;49.190;8.122;2024-02-23T05:12:59;6.20;99.90
30186;DHT22;31152;49.190;8.122;2024-02-23T05:15:25;6.20;99.90
30186;DHT22;31152;49.190;8.122;2024-02-23T05:17:52;6.20;99.90
30186;DHT22;31152;49.190;8.122;2024-02-23T05:20:19;6.20;99.90
30186;DHT22;31152;49.190;8.122;2024-02-23T05:22:46;6.10;99.90
30186;DHT22;31152;49.190;8.122;2024-02-23T05:25:12;6.20;99.90
30186;DHT22;31152;49.190;8.122;2024-02-23T05:27:39;6.10;99.90
30186;DHT22;31152;49.190;8.122;2024-02-23T05:30:06;6.00;99.90
30186;DHT22;31152;49.190;8.122;2024-02-23T05:32:33;6.00;99.90
30186;DHT22;31152;49.190;8.122;2024-02-23T05:35:00;6.00;99.90
30186;DHT22;31152;49.190;8.122;2024-02-23T05:37:30;5.90;99.90
30186;DHT22;31152;49.190;8.122;2024-02-23T05:39:56;5.80;99.90
30186;DHT22;31152;49.190;8.122;2024-02-23T05:42:26;5.90;99.90
30186;DHT22;31152;49.190;8.122;2024-02-23T05:44:53;5.90;99.90
30186;DHT22;31152;49.190;8.122;2024-02-23T05:47:19;5.90;99.90
30186;DHT22;31152;49.190;8.122;2024-02-23T05:49:48;5.90;99.90
30186;DHT22;31152;49.190;8.122;2024-02-23T05:52:14;5.80;99.90
30186;DHT22;31152;49.190;8.122;2024-02-23T05:54:41;5.80;99.90
30186;DHT22;31152;49.190;8.122;2024-02-23T05:57:08;5.80;99.90
30186;DHT22;31152;49.190;8.122;2024-02-23T05:59:35;5.70;99.90
30186;DHT22;31152;49.190;8.122;2024-02-23T06:02:02;5.70;99.90
30186;DHT22;31152;49.190;8.122;2024-02-23T06:04:31;5.60;99.90
30186;DHT22;31152;49.190;8.122;2024-02-23T06:06:58;5.60;99.90
30186;DHT22;31152;49.190;8.122;2024-02-23T06:09:25;5.50;99.90
30186;DHT22;31152;49.190;8.122;2024-02-23T06:11:51;5.50;99.90
30186;DHT22;31152;49.190;8.122;2024-02-23T06:14:18;5.40;99.90
30186;DHT22;31152;49.190;8.122;2024-02-23T06:16:48;5.40;99.90
30186;DHT22;31152;49.190;8.122;2024-02-23T06:19:15;5.40;99.90
30186;DHT22;31152;49.190;8.122;2024-02-23T06:21:47;5.40;99.90
30186;DHT22;31152;49.190;8.122;2024-02-23T06:24:14;5.30;99.90
30186;DHT22;31152;49.190;8.122;2024-02-23T06:26:40;5.30;99.90
30186;DHT22;31152;49.190;8.122;2024-02-23T06:29:07;5.20;99.90
30186;DHT22;31152;49.190;8.122;2024-02-23T06:31:37;5.10;99.90
30186;DHT22;31152;49.190;8.122;2024-02-23T06:34:05;5.10;99.90
30186;DHT22;31152;49.190;8.122;2024-02-23T06:36:31;5.00;99.90
30186;DHT22;31152;49.190;8.122;2024-02-23T06:38:58;5.00;99.90
30186;DHT22;31152;49.190;8.122;2024-02-23T06:41:25;5.00;99.90
30186;DHT22;31152;49.190;8.122;2024-02-23T06:43:53;5.00;99.90
30186;DHT22;31152;49.190;8.122;2024-02-23T06:46:19;5.00;99.90
30186;DHT22;31152;49.190;8.122;2024-02-23T06:48:47;5.00;99.90
30186;DHT22;31152;49.190;8.122;2024-02-23T06:51:16;5.00;99.90
30186;DHT22;31152;49.190;8.122;2024-02-23T06:53:45;5.00;99.90
30186;DHT22;31152;49.190;8.122;2024-02-23T06:56:14;4.90;99.90
30186;DHT22;31152;49.190;8.122;2024-02-23T06:58:41;4.90;99.90
30186;DHT22;31152;49.190;8.122;2024-02-23T07:01:08;4.90;99.90
30186;DHT22;31152;49.190;8.122;2024-02-23T07:03:38;4.90;99.90
30186;DHT22;31152;49.190;8.122;2024-02-23T07:06:10;4.90;99.90
30186;DHT22;31152;49.190;8.122;2024-02-23T07:08:39;4.90;99.90
30186;DHT22;31152;49.190;8.122;2024-02-23T07:11:06;4.90;99.90
30186;DHT22;31152;49.190;8.122;2024-02-23T07:13:34;4.90;99.90
30186;DHT22;31152;49.190;8.122;2024-02-23T07:16:01;4.90;99.90
30186;DHT22;31152;49.190;8.122;2024-02-23T07:18:30;4.90;99.90
30186;DHT22;31152;49.190;8.122;2024-02-23T07:20:59;4.90;99.90
30186;DHT22;31152;49.190;8.122;2024-02-23T07:23:26;4.90;99.90
30186;DHT22;31152;49.190;8.122;2024-02-23T07:25:52;4.90;99.90
30186;DHT22;31152;49.190;8.122;2024-02-23T07:28:19;4.90;99.90
30186;DHT22;31152;49.190;8.122;2024-02-23T07:30:46;4.90;99.90
30186;DHT22;31152;49.190;8.122;2024-02-23T07:33:13;5.00;99.90
30186;DHT22;31152;49.190;8.122;2024-02-23T07:35:43;5.00;99.90
30186;DHT22;31152;49.190;8.122;2024-02-23T07:38:09;5.00;99.90
30186;DHT22;31152;49.190;8.122;2024-02-23T07:40:36;5.10;99.90
30186;DHT22;31152;49.190;8.122;2024-02-23T07:43:08;5.10;99.90
30186;DHT22;31152;49.190;8.122;2024-02-23T07:45:37;5.20;99.90
30186;DHT22;31152;49.190;8.122;2024-02-23T07:48:04;5.20;99.90
30186;DHT22;31152;49.190;8.122;2024-02-23T07:50:31;5.20;99.90
30186;DHT22;31152;49.190;8.122;2024-02-23T07:53:00;5.20;99.90
30186;DHT22;31152;49.190;8.122;2024-02-23T07:55:27;5.20;99.90
30186;DHT22;31152;49.190;8.122;2024-02-23T07:57:54;5.20;99.90
30186;DHT22;31152;49.190;8.122;2024-02-23T08:00:27;5.20;99.90
30186;DHT22;31152;49.190;8.122;2024-02-23T08:02:54;5.30;99.90
30186;DHT22;31152;49.190;8.122;2024-02-23T08:05:25;5.40;99.90
30186;DHT22;31152;49.190;8.122;2024-02-23T08:07:52;5.40;99.90
30186;DHT22;31152;49.190;8.122;2024-02-23T08:10:22;5.50;99.90
30186;DHT22;31152;49.190;8.122;2024-02-23T08:12:50;5.50;99.90
30186;DHT22;31152;49.190;8.122;2024-02-23T08:15:19;5.50;99.90
30186;DHT22;31152;49.190;8.122;2024-02-23T08:17:45;5.60;99.90
30186;DHT22;31152;49.190;8.122;2024-02-23T08:20:16;5.60;99.90
30186;DHT22;31152;49.190;8.122;2024-02-23T08:22:42;5.70;99.90
30186;DHT22;31152;49.190;8.122;2024-02-23T08:25:09;5.70;99.90
30186;DHT22;31152;49.190;8.122;2024-02-23T08:27:43;5.80;99.90
30186;DHT22;31152;49.190;8.122;2024-02-23T08:30:10;5.90;99.90
30186;DHT22;31152;49.190;8.122;2024-02-23T08:32:37;5.90;99.90
30186;DHT22;31152;49.190;8.122;2024-02-23T08:35:04;5.90;99.90
30186;DHT22;31152;49.190;8.122;2024-02-23T08:37:31;5.90;99.90
30186;DHT22;31152;49.190;8.122;2024-02-23T08:39:58;6.00;99.90
30186;DHT22;31152;49.190;8.122;2024-02-23T08:42:24;6.00;99.90
30186;DHT22;31152;49.190;8.122;2024-02-23T08:44:51;6.00;99.90
30186;DHT22;31152;49.190;8.122;2024-02-23T08:47:18;6.10;99.90
30186;DHT22;31152;49.190;8.122;2024-02-23T08:49:47;6.20;99.90
30186;DHT22;31152;49.190;8.122;2024-02-23T08:52:14;6.30;99.90
30186;DHT22;31152;49.190;8.122;2024-02-23T08:54:41;6.30;99.90
30186;DHT22;31152;49.190;8.122;2024-02-23T08:57:08;6.40;99.90
30186;DHT22;31152;49.190;8.122;2024-02-23T08:59:35;6.50;99.90
30186;DHT22;31152;49.190;8.122;2024-02-23T09:02:05;6.70;99.90
30186;DHT22;31152;49.190;8.122;2024-02-23T09:04:32;6.80;99.90
30186;DHT22;31152;49.190;8.122;2024-02-23T09:06:59;6.90;99.90
30186;DHT22;31152;49.190;8.122;2024-02-23T09:09:35;6.90;99.90
30186;DHT22;31152;49.190;8.122;2024-02-23T09:12:02;6.90;99.90
30186;DHT22;31152;49.190;8.122;2024-02-23T09:14:31;6.90;99.90
30186;DHT22;31152;49.190;8.122;2024-02-23T09:16:58;6.90;99.90
30186;DHT22;31152;49.190;8.122;2024-02-23T09:19:26;6.80;99.90
30186;DHT22;31152;49.190;8.122;2024-02-23T09:21:53;6.90;99.90
30186;DHT22;31152;49.190;8.122;2024-02-23T09:24:20;6.90;99.90
30186;DHT22;31152;49.190;8.122;2024-02-23T09:26:50;7.00;99.90
30186;DHT22;31152;49.190;8.122;2024-02-23T09:29:19;7.10;99.90
30186;DHT22;31152;49.190;8.122;2024-02-23T09:31:47;7.10;99.90
30186;DHT22;31152;49.190;8.122;2024-02-23T09:34:16;7.00;99.90
30186;DHT22;31152;49.190;8.122;2024-02-23T09:36:45;7.20;99.90
30186;DHT22;31152;49.190;8.122;2024-02-23T09:39:15;7.40;99.90
30186;DHT22;31152;49.190;8.122;2024-02-23T09:41:42;7.60;99.90
30186;DHT22;31152;49.190;8.122;2024-02-23T09:44:09;7.80;99.90
30186;DHT22;31152;49.190;8.122;2024-02-23T09:46:36;8.10;99.90
30186;DHT22;31152;49.190;8.122;2024-02-23T09:49:06;8.30;99.90
30186;DHT22;31152;49.190;8.122;2024-02-23T09:51:34;8.30;99.90
30186;DHT22;31152;49.190;8.122;2024-02-23T09:54:07;8.40;99.90
30186;DHT22;31152;49.190;8.122;2024-02-23T09:56:34;8.50;99.90
30186;DHT22;31152;49.190;8.122;2024-02-23T09:59:03;8.60;99.90
30186;DHT22;31152;49.190;8.122;2024-02-23T10:01:31;8.70;99.90
30186;DHT22;31152;49.190;8.122;2024-02-23T10:04:02;8.80;99.90
30186;DHT22;31152;49.190;8.122;2024-02-23T10:06:32;8.80;99.90
30186;DHT22;31152;49.190;8.122;2024-02-23T10:08:59;9.00;99.90
30186;DHT22;31152;49.190;8.122;2024-02-23T10:11:26;9.00;99.90
30186;DHT22;31152;49.190;8.122;2024-02-23T10:13:53;8.90;99.90
30186;DHT22;31152;49.190;8.122;2024-02-23T10:16:20;8.90;99.90
30186;DHT22;31152;49.190;8.122;2024-02-23T10:18:47;8.80;99.90
30186;DHT22;31152;49.190;8.122;2024-02-23T10:21:15;8.80;99.90
30186;DHT22;31152;49.190;8.122;2024-02-23T10:23:51;8.80;99.90
30186;DHT22;31152;49.190;8.122;2024-02-23T10:26:19;8.80;99.90
30186;DHT22;31152;49.190;8.122;2024-02-23T10:28:49;8.90;99.90
30186;DHT22;31152;49.190;8.122;2024-02-23T10:31:18;9.10;99.90
30186;DHT22;31152;49.190;8.122;2024-02-23T10:33:48;9.10;99.90
30186;DHT22;31152;49.190;8.122;2024-02-23T10:36:17;9.20;99.90
30186;DHT22;31152;49.190;8.122;2024-02-23T10:38:47;9.20;99.90
30186;DHT22;31152;49.190;8.122;2024-02-23T10:41:15;9.40;99.90
30186;DHT22;31152;49.190;8.122;2024-02-23T10:43:45;9.70;99.90
30186;DHT22;31152;49.190;8.122;2024-02-23T10:46:13;10.00;99.90
30186;DHT22;31152;49.190;8.122;2024-02-23T10:48:43;10.40;99.90
30186;DHT22;31152;49.190;8.122;2024-02-23T10:51:11;10.80;99.90
30186;DHT22;31152;49.190;8.122;2024-02-23T10:53:40;11.00;99.90
30186;DHT22;31152;49.190;8.122;2024-02-23T10:56:07;10.90;99.90
30186;DHT22;31152;49.190;8.122;2024-02-23T10:58:34;10.70;99.90
30186;DHT22;31152;49.190;8.122;2024-02-23T11:01:01;10.50;99.90
30186;DHT22;31152;49.190;8.122;2024-02-23T11:03:29;10.50;99.90
30186;DHT22;31152;49.190;8.122;2024-02-23T11:05:56;10.40;99.90
30186;DHT22;31152;49.190;8.122;2024-02-23T11:08:24;10.20;99.90
30186;DHT22;31152;49.190;8.122;2024-02-23T11:10:50;9.90;99.90
30186;DHT22;31152;49.190;8.122;2024-02-23T11:13:38;9.80;99.90
30186;DHT22;31152;49.190;8.122;2024-02-23T11:16:05;9.60;99.90
30186;DHT22;31152;49.190;8.122;2024-02-23T11:18:34;9.40;99.90
30186;DHT22;31152;49.190;8.122;2024-02-23T11:21:08;9.30;99.90
30186;DHT22;31152;49.190;8.122;2024-02-23T11:23:41;9.30;99.90
30186;DHT22;31152;49.190;8.122;2024-02-23T11:26:10;9.30;99.90
30186;DHT22;31152;49.190;8.122;2024-02-23T11:28:47;9.20;99.90
30186;DHT22;31152;49.190;8.122;2024-02-23T11:31:15;9.20;99.90
30186;DHT22;31152;49.190;8.122;2024-02-23T11:33:51;9.20;99.90
30186;DHT22;31152;49.190;8.122;2024-02-23T11:36:32;9.20;99.90
30186;DHT22;31152;49.190;8.122;2024-02-23T11:38:59;9.20;99.90
30186;DHT22;31152;49.190;8.122;2024-02-23T11:41:28;9.20;99.90
30186;DHT22;31152;49.190;8.122;2024-02-23T11:43:55;9.20;99.90
30186;DHT22;31152;49.190;8.122;2024-02-23T11:46:22;9.20;99.90
30186;DHT22;31152;49.190;8.122;2024-02-23T11:48:51;9.20;99.90
30186;DHT22;31152;49.190;8.122;2024-02-23T11:51:21;9.20;99.90
30186;DHT22;31152;49.190;8.122;2024-02-23T11:53:48;9.30;99.90
30186;DHT22;31152;49.190;8.122;2024-02-23T11:56:15;9.20;99.90
30186;DHT22;31152;49.190;8.122;2024-02-23T11:58:46;9.20;99.90
30186;DHT22;31152;49.190;8.122;2024-02-23T12:01:12;9.20;99.90
30186;DHT22;31152;49.190;8.122;2024-02-23T12:03:40;9.10;99.90
30186;DHT22;31152;49.190;8.122;2024-02-23T12:06:09;9.10;99.90
30186;DHT22;31152;49.190;8.122;2024-02-23T12:08:36;9.20;99.90
30186;DHT22;31152;49.190;8.122;2024-02-23T12:11:08;9.40;99.90
30186;DHT22;31152;49.190;8.122;2024-02-23T12:13:36;9.60;99.90
30186;DHT22;31152;49.190;8.122;2024-02-23T12:16:07;9.60;99.90
30186;DHT22;31152;49.190;8.122;2024-02-23T12:18:34;9.60;99.90
30186;DHT22;31152;49.190;8.122;2024-02-23T12:21:02;9.60;99.90
30186;DHT22;31152;49.190;8.122;2024-02-23T12:23:40;9.60;99.90
30186;DHT22;31152;49.190;8.122;2024-02-23T12:26:08;9.60;99.90
30186;DHT22;31152;49.190;8.122;2024-02-23T12:28:35;9.60;99.90
30186;DHT22;31152;49.190;8.122;2024-02-23T12:31:05;9.60;99.90
30186;DHT22;31152;49.190;8.122;2024-02-23T12:33:36;9.70;99.90
30186;DHT22;31152;49.190;8.122;2024-02-23T12:36:04;10.20;99.90
30186;DHT22;31152;49.190;8.122;2024-02-23T12:38:35;11.00;99.90
30186;DHT22;31152;49.190;8.122;2024-02-23T12:41:02;11.20;99.90
30186;DHT22;31152;49.190;8.122;2024-02-23T12:43:29;11.00;99.90
30186;DHT22;31152;49.190;8.122;2024-02-23T12:45:57;10.60;99.90
30186;DHT22;31152;49.190;8.122;2024-02-23T12:48:24;10.40;99.90
30186;DHT22;31152;49.190;8.122;2024-02-23T12:50:51;10.80;99.90
30186;DHT22;31152;49.190;8.122;2024-02-23T12:53:34;10.90;99.90
30186;DHT22;31152;49.190;8.122;2024-02-23T12:56:06;11.20;99.90
30186;DHT22;31152;49.190;8.122;2024-02-23T12:58:38;11.20;99.90
30186;DHT22;31152;49.190;8.122;2024-02-23T13:01:05;10.90;99.90
30186;DHT22;31152;49.190;8.122;2024-02-23T13:03:34;10.60;99.90
30186;DHT22;31152;49.190;8.122;2024-02-23T13:06:01;10.30;99.90
30186;DHT22;31152;49.190;8.122;2024-02-23T13:08:29;10.20;99.90
30186;DHT22;31152;49.190;8.122;2024-02-23T13:10:56;10.20;99.90
30186;DHT22;31152;49.190;8.122;2024-02-23T13:13:25;10.10;99.90
30186;DHT22;31152;49.190;8.122;2024-02-23T13:15:55;10.00;99.90
30186;DHT22;31152;49.190;8.122;2024-02-23T13:18:23;10.00;99.90
30186;DHT22;31152;49.190;8.122;2024-02-23T13:20:50;9.90;99.90
30186;DHT22;31152;49.190;8.122;2024-02-23T13:23:17;9.90;99.90
30186;DHT22;31152;49.190;8.122;2024-02-23T13:25:44;10.00;99.90
30186;DHT22;31152;49.190;8.122;2024-02-23T13:28:14;9.90;99.90
30186;DHT22;31152;49.190;8.122;2024-02-23T13:30:40;9.90;99.90
30186;DHT22;31152;49.190;8.122;2024-02-23T13:33:07;9.90;99.90
30186;DHT22;31152;49.190;8.122;2024-02-23T13:35:35;10.00;99.90
30186;DHT22;31152;49.190;8.122;2024-02-23T13:38:02;10.10;99.90
30186;DHT22;31152;49.190;8.122;2024-02-23T13:40:32;10.10;99.90
30186;DHT22;31152;49.190;8.122;2024-02-23T13:42:59;10.40;99.90
30186;DHT22;31152;49.190;8.122;2024-02-23T13:45:26;11.50;99.90
30186;DHT22;31152;49.190;8.122;2024-02-23T13:48:00;12.90;99.90
30186;DHT22;31152;49.190;8.122;2024-02-23T13:50:27;14.20;99.60
30186;DHT22;31152;49.190;8.122;2024-02-23T13:52:54;14.70;96.30
30186;DHT22;31152;49.190;8.122;2024-02-23T13:55:21;14.90;96.10
30186;DHT22;31152;49.190;8.122;2024-02-23T13:57:49;15.80;95.00
30186;DHT22;31152;49.190;8.122;2024-02-23T14:00:16;16.40;90.00
30186;DHT22;31152;49.190;8.122;2024-02-23T14:02:43;17.10;86.20
30186;DHT22;31152;49.190;8.122;2024-02-23T14:05:11;17.20;84.50
30186;DHT22;31152;49.190;8.122;2024-02-23T14:07:38;17.20;82.70
30186;DHT22;31152;49.190;8.122;2024-02-23T14:10:06;17.00;82.10
30186;DHT22;31152;49.190;8.122;2024-02-23T14:12:37;16.70;80.90
30186;DHT22;31152;49.190;8.122;2024-02-23T14:15:04;16.90;81.50
30186;DHT22;31152;49.190;8.122;2024-02-23T14:17:32;16.90;80.00
30186;DHT22;31152;49.190;8.122;2024-02-23T14:19:59;17.20;79.80
30186;DHT22;31152;49.190;8.122;2024-02-23T14:22:26;17.20;79.90
30186;DHT22;31152;49.190;8.122;2024-02-23T14:24:58;17.40;78.00
30186;DHT22;31152;49.190;8.122;2024-02-23T14:27:25;17.70;78.10
30186;DHT22;31152;49.190;8.122;2024-02-23T14:29:57;17.50;73.50
30186;DHT22;31152;49.190;8.122;2024-02-23T14:32:24;17.50;75.40
30186;DHT22;31152;49.190;8.122;2024-02-23T14:34:51;17.50;73.70
30186;DHT22;31152;49.190;8.122;2024-02-23T14:37:18;16.90;73.20
30186;DHT22;31152;49.190;8.122;2024-02-23T14:39:47;16.70;75.90
30186;DHT22;31152;49.190;8.122;2024-02-23T14:42:15;17.00;74.90
30186;DHT22;31152;49.190;8.122;2024-02-23T14:44:43;17.60;72.80
30186;DHT22;31152;49.190;8.122;2024-02-23T14:47:12;17.50;71.80
30186;DHT22;31152;49.190;8.122;2024-02-23T14:49:40;16.80;72.10
30186;DHT22;31152;49.190;8.122;2024-02-23T14:52:07;16.40;73.90
30186;DHT22;31152;49.190;8.122;2024-02-23T14:54:34;15.70;76.40
30186;DHT22;31152;49.190;8.122;2024-02-23T14:57:01;15.50;79.60
30186;DHT22;31152;49.190;8.122;2024-02-23T14:59:28;15.80;78.60
30186;DHT22;31152;49.190;8.122;2024-02-23T15:01:55;15.10;77.20
30186;DHT22;31152;49.190;8.122;2024-02-23T15:04:22;14.40;79.10
30186;DHT22;31152;49.190;8.122;2024-02-23T15:06:48;13.80;80.90
30186;DHT22;31152;49.190;8.122;2024-02-23T15:09:15;13.40;82.70
30186;DHT22;31152;49.190;8.122;2024-02-23T15:11:42;13.20;85.60
30186;DHT22;31152;49.190;8.122;2024-02-23T15:14:09;13.00;85.00
30186;DHT22;31152;49.190;8.122;2024-02-23T15:16:36;12.80;85.40
30186;DHT22;31152;49.190;8.122;2024-02-23T15:19:03;12.70;86.20
30186;DHT22;31152;49.190;8.122;2024-02-23T15:21:33;12.60;87.00
30186;DHT22;31152;49.190;8.122;2024-02-23T15:24:01;12.70;87.00
30186;DHT22;31152;49.190;8.122;2024-02-23T15:26:28;12.60;87.30
30186;DHT22;31152;49.190;8.122;2024-02-23T15:28:57;12.50;86.90
30186;DHT22;31152;49.190;8.122;2024-02-23T15:31:24;12.60;88.20
30186;DHT22;31152;49.190;8.122;2024-02-23T15:33:50;13.00;87.20
30186;DHT22;31152;49.190;8.122;2024-02-23T15:36:23;13.80;84.90
30186;DHT22;31152;49.190;8.122;2024-02-23T15:38:49;14.50;83.30
30186;DHT22;31152;49.190;8.122;2024-02-23T15:41:19;14.90;81.60
30186;DHT22;31152;49.190;8.122;2024-02-23T15:43:48;14.40;81.90
30186;DHT22;31152;49.190;8.122;2024-02-23T15:46:20;13.80;84.50